sensor_id;sensor_type;location;lat;lon;timestamp;P1;durP1;ratioP1;P2;durP2;ratioP2
22614;SDS011;11474;50.790;0.298;2023-08-31T00:01:48;8.13;;;2.78;;
22614;SDS011;11474;50.790;0.298;2023-08-31T00:04:15;7.63;;;2.92;;
22614;SDS011;11474;50.790;0.298;2023-08-31T00:06:41;7.28;;;2.72;;
22614;SDS011;11474;50.790;0.298;2023-08-31T00:09:10;9.40;;;2.93;;
22614;SDS011;11474;50.790;0.298;2023-08-31T00:11:36;9.52;;;3.05;;
22614;SDS011;11474;50.790;0.298;2023-08-31T00:14:02;10.45;;;2.80;;
22614;SDS011;11474;50.790;0.298;2023-08-31T00:16:29;7.50;;;2.70;;
22614;SDS011;11474;50.790;0.298;2023-08-31T00:18:58;6.80;;;2.90;;
22614;SDS011;11474;50.790;0.298;2023-08-31T00:21:24;8.30;;;2.60;;
22614;SDS011;11474;50.790;0.298;2023-08-31T00:23:50;11.07;;;3.00;;
22614;SDS011;11474;50.790;0.298;2023-08-31T00:26:16;7.95;;;2.80;;
22614;SDS011;11474;50.790;0.298;2023-08-31T00:28:42;12.65;;;3.22;;
22614;SDS011;11474;50.790;0.298;2023-08-31T00:31:09;10.52;;;3.30;;
22614;SDS011;11474;50.790;0.298;2023-08-31T00:33:37;11.07;;;2.78;;
22614;SDS011;11474;50.790;0.298;2023-08-31T00:36:03;9.05;;;2.67;;
22614;SDS011;11474;50.790;0.298;2023-08-31T00:38:32;9.95;;;3.13;;
22614;SDS011;11474;50.790;0.298;2023-08-31T00:40:58;8.57;;;3.00;;
22614;SDS011;11474;50.790;0.298;2023-08-31T00:43:24;8.43;;;3.10;;
22614;SDS011;11474;50.790;0.298;2023-08-31T00:45:51;9.10;;;2.40;;
22614;SDS011;11474;50.790;0.298;2023-08-31T00:48:19;7.97;;;2.75;;
22614;SDS011;11474;50.790;0.298;2023-08-31T00:50:45;8.50;;;2.80;;
22614;SDS011;11474;50.790;0.298;2023-08-31T00:53:12;6.75;;;2.92;;
22614;SDS011;11474;50.790;0.298;2023-08-31T00:55:38;8.15;;;2.72;;
22614;SDS011;11474;50.790;0.298;2023-08-31T00:58:08;8.70;;;2.63;;
22614;SDS011;11474;50.790;0.298;2023-08-31T01:03:16;11.27;;;3.47;;
22614;SDS011;11474;50.790;0.298;2023-08-31T01:05:51;9.83;;;2.80;;
22614;SDS011;11474;50.790;0.298;2023-08-31T01:13:17;11.02;;;2.53;;
22614;SDS011;11474;50.790;0.298;2023-08-31T01:15:49;8.48;;;3.00;;
22614;SDS011;11474;50.790;0.298;2023-08-31T01:18:17;9.55;;;2.75;;
22614;SDS011;11474;50.790;0.298;2023-08-31T01:23:16;6.63;;;2.60;;
22614;SDS011;11474;50.790;0.298;2023-08-31T01:25:44;13.63;;;2.90;;
22614;SDS011;11474;50.790;0.298;2023-08-31T01:28:11;7.57;;;2.80;;
22614;SDS011;11474;50.790;0.298;2023-08-31T01:30:37;9.57;;;2.80;;
22614;SDS011;11474;50.790;0.298;2023-08-31T01:33:03;8.23;;;2.95;;
22614;SDS011;11474;50.790;0.298;2023-08-31T01:35:34;8.43;;;2.65;;
22614;SDS011;11474;50.790;0.298;2023-08-31T01:38:04;8.60;;;2.55;;
22614;SDS011;11474;50.790;0.298;2023-08-31T01:40:54;6.93;;;2.63;;
22614;SDS011;11474;50.790;0.298;2023-08-31T01:43:20;9.43;;;2.65;;
22614;SDS011;11474;50.790;0.298;2023-08-31T01:45:47;8.47;;;3.00;;
22614;SDS011;11474;50.790;0.298;2023-08-31T01:48:14;8.00;;;3.20;;
22614;SDS011;11474;50.790;0.298;2023-08-31T01:50:40;10.70;;;2.80;;
22614;SDS011;11474;50.790;0.298;2023-08-31T01:53:06;7.22;;;2.70;;
22614;SDS011;11474;50.790;0.298;2023-08-31T01:55:33;6.32;;;2.70;;
22614;SDS011;11474;50.790;0.298;2023-08-31T01:57:59;7.50;;;2.83;;
22614;SDS011;11474;50.790;0.298;2023-08-31T02:00:26;6.75;;;2.80;;
22614;SDS011;11474;50.790;0.298;2023-08-31T02:02:53;12.48;;;2.70;;
22614;SDS011;11474;50.790;0.298;2023-08-31T02:05:19;7.53;;;2.90;;
22614;SDS011;11474;50.790;0.298;2023-08-31T02:07:45;8.75;;;3.50;;
22614;SDS011;11474;50.790;0.298;2023-08-31T02:10:11;10.82;;;2.80;;
22614;SDS011;11474;50.790;0.298;2023-08-31T02:12:37;5.88;;;2.80;;
22614;SDS011;11474;50.790;0.298;2023-08-31T02:15:04;11.85;;;3.05;;
22614;SDS011;11474;50.790;0.298;2023-08-31T02:17:30;8.60;;;2.97;;
22614;SDS011;11474;50.790;0.298;2023-08-31T02:19:56;8.05;;;2.97;;
22614;SDS011;11474;50.790;0.298;2023-08-31T02:22:23;9.98;;;3.28;;
22614;SDS011;11474;50.790;0.298;2023-08-31T02:24:49;10.90;;;3.17;;
22614;SDS011;11474;50.790;0.298;2023-08-31T02:27:15;9.77;;;3.30;;
22614;SDS011;11474;50.790;0.298;2023-08-31T02:29:42;11.32;;;3.10;;
22614;SDS011;11474;50.790;0.298;2023-08-31T02:32:08;7.30;;;2.70;;
22614;SDS011;11474;50.790;0.298;2023-08-31T02:34:34;10.55;;;3.00;;
22614;SDS011;11474;50.790;0.298;2023-08-31T02:37:00;6.45;;;3.03;;
22614;SDS011;11474;50.790;0.298;2023-08-31T02:39:26;9.05;;;2.95;;
22614;SDS011;11474;50.790;0.298;2023-08-31T02:41:52;8.20;;;3.15;;
22614;SDS011;11474;50.790;0.298;2023-08-31T02:44:18;11.73;;;3.05;;
22614;SDS011;11474;50.790;0.298;2023-08-31T02:46:44;10.23;;;2.70;;
22614;SDS011;11474;50.790;0.298;2023-08-31T02:49:10;9.83;;;3.23;;
22614;SDS011;11474;50.790;0.298;2023-08-31T02:51:36;8.57;;;2.40;;
22614;SDS011;11474;50.790;0.298;2023-08-31T02:54:02;6.38;;;2.58;;
22614;SDS011;11474;50.790;0.298;2023-08-31T02:56:29;6.68;;;2.80;;
22614;SDS011;11474;50.790;0.298;2023-08-31T02:58:55;7.90;;;2.80;;
22614;SDS011;11474;50.790;0.298;2023-08-31T03:01:21;8.80;;;3.28;;
22614;SDS011;11474;50.790;0.298;2023-08-31T03:03:49;9.55;;;2.72;;
22614;SDS011;11474;50.790;0.298;2023-08-31T03:06:15;8.95;;;3.22;;
22614;SDS011;11474;50.790;0.298;2023-08-31T03:08:41;13.60;;;3.20;;
22614;SDS011;11474;50.790;0.298;2023-08-31T03:11:07;10.57;;;3.45;;
22614;SDS011;11474;50.790;0.298;2023-08-31T03:13:33;12.63;;;3.42;;
22614;SDS011;11474;50.790;0.298;2023-08-31T03:16:00;8.40;;;3.13;;
22614;SDS011;11474;50.790;0.298;2023-08-31T03:18:26;8.88;;;3.13;;
22614;SDS011;11474;50.790;0.298;2023-08-31T03:20:53;7.25;;;2.70;;
22614;SDS011;11474;50.790;0.298;2023-08-31T03:23:20;8.60;;;2.75;;
22614;SDS011;11474;50.790;0.298;2023-08-31T03:25:46;10.93;;;3.28;;
22614;SDS011;11474;50.790;0.298;2023-08-31T03:28:12;7.88;;;3.10;;
22614;SDS011;11474;50.790;0.298;2023-08-31T03:30:38;8.25;;;3.08;;
22614;SDS011;11474;50.790;0.298;2023-08-31T03:33:04;17.48;;;3.90;;
22614;SDS011;11474;50.790;0.298;2023-08-31T03:35:33;8.65;;;3.35;;
22614;SDS011;11474;50.790;0.298;2023-08-31T03:38:00;8.80;;;3.67;;
22614;SDS011;11474;50.790;0.298;2023-08-31T03:40:26;9.75;;;2.95;;
22614;SDS011;11474;50.790;0.298;2023-08-31T03:42:52;11.00;;;3.15;;
22614;SDS011;11474;50.790;0.298;2023-08-31T03:45:19;9.48;;;3.65;;
22614;SDS011;11474;50.790;0.298;2023-08-31T03:47:45;10.05;;;3.38;;
22614;SDS011;11474;50.790;0.298;2023-08-31T03:50:11;8.40;;;3.42;;
22614;SDS011;11474;50.790;0.298;2023-08-31T03:52:37;8.18;;;3.17;;
22614;SDS011;11474;50.790;0.298;2023-08-31T03:55:03;8.65;;;2.90;;
22614;SDS011;11474;50.790;0.298;2023-08-31T03:57:30;8.68;;;3.25;;
22614;SDS011;11474;50.790;0.298;2023-08-31T03:59:56;10.23;;;3.38;;
22614;SDS011;11474;50.790;0.298;2023-08-31T04:02:22;8.40;;;3.30;;
22614;SDS011;11474;50.790;0.298;2023-08-31T04:04:49;8.18;;;3.35;;
22614;SDS011;11474;50.790;0.298;2023-08-31T04:07:15;8.27;;;3.30;;
22614;SDS011;11474;50.790;0.298;2023-08-31T04:09:41;8.10;;;3.50;;
22614;SDS011;11474;50.790;0.298;2023-08-31T04:12:07;8.95;;;3.50;;
22614;SDS011;11474;50.790;0.298;2023-08-31T04:14:33;9.35;;;3.60;;
22614;SDS011;11474;50.790;0.298;2023-08-31T04:16:59;8.10;;;3.50;;
22614;SDS011;11474;50.790;0.298;2023-08-31T04:19:25;11.73;;;3.70;;
22614;SDS011;11474;50.790;0.298;2023-08-31T04:21:51;8.57;;;3.28;;
22614;SDS011;11474;50.790;0.298;2023-08-31T04:24:18;8.57;;;3.80;;
22614;SDS011;11474;50.790;0.298;2023-08-31T04:26:44;6.30;;;3.40;;
22614;SDS011;11474;50.790;0.298;2023-08-31T04:29:10;9.95;;;3.08;;
22614;SDS011;11474;50.790;0.298;2023-08-31T04:31:36;8.33;;;3.30;;
22614;SDS011;11474;50.790;0.298;2023-08-31T04:34:03;10.43;;;3.22;;
22614;SDS011;11474;50.790;0.298;2023-08-31T04:36:29;8.20;;;3.40;;
22614;SDS011;11474;50.790;0.298;2023-08-31T04:38:55;7.60;;;3.40;;
22614;SDS011;11474;50.790;0.298;2023-08-31T04:41:21;7.18;;;2.90;;
22614;SDS011;11474;50.790;0.298;2023-08-31T04:43:47;7.75;;;3.10;;
22614;SDS011;11474;50.790;0.298;2023-08-31T04:46:14;10.00;;;3.25;;
22614;SDS011;11474;50.790;0.298;2023-08-31T04:48:40;9.05;;;3.13;;
22614;SDS011;11474;50.790;0.298;2023-08-31T04:51:06;10.23;;;3.63;;
22614;SDS011;11474;50.790;0.298;2023-08-31T04:53:32;8.70;;;3.70;;
22614;SDS011;11474;50.790;0.298;2023-08-31T04:55:58;11.65;;;3.60;;
22614;SDS011;11474;50.790;0.298;2023-08-31T04:58:24;9.50;;;3.85;;
22614;SDS011;11474;50.790;0.298;2023-08-31T05:00:53;8.57;;;3.60;;
22614;SDS011;11474;50.790;0.298;2023-08-31T05:03:19;9.18;;;3.50;;
22614;SDS011;11474;50.790;0.298;2023-08-31T05:05:46;12.88;;;3.60;;
22614;SDS011;11474;50.790;0.298;2023-08-31T05:08:12;9.77;;;3.45;;
22614;SDS011;11474;50.790;0.298;2023-08-31T05:10:38;10.20;;;3.63;;
22614;SDS011;11474;50.790;0.298;2023-08-31T05:13:04;9.63;;;3.88;;
22614;SDS011;11474;50.790;0.298;2023-08-31T05:15:30;8.90;;;3.60;;
22614;SDS011;11474;50.790;0.298;2023-08-31T05:17:58;8.35;;;3.58;;
22614;SDS011;11474;50.790;0.298;2023-08-31T05:20:24;8.13;;;3.28;;
22614;SDS011;11474;50.790;0.298;2023-08-31T05:22:50;8.93;;;3.10;;
22614;SDS011;11474;50.790;0.298;2023-08-31T05:25:17;11.20;;;3.60;;
22614;SDS011;11474;50.790;0.298;2023-08-31T05:27:43;11.02;;;3.42;;
22614;SDS011;11474;50.790;0.298;2023-08-31T05:30:09;10.13;;;3.78;;
22614;SDS011;11474;50.790;0.298;2023-08-31T05:32:35;13.60;;;3.57;;
22614;SDS011;11474;50.790;0.298;2023-08-31T05:35:02;11.73;;;3.58;;
22614;SDS011;11474;50.790;0.298;2023-08-31T05:37:31;11.25;;;3.85;;
22614;SDS011;11474;50.790;0.298;2023-08-31T05:39:57;11.13;;;4.03;;
22614;SDS011;11474;50.790;0.298;2023-08-31T05:42:23;12.87;;;4.00;;
22614;SDS011;11474;50.790;0.298;2023-08-31T05:44:49;10.18;;;3.83;;
22614;SDS011;11474;50.790;0.298;2023-08-31T05:47:16;10.85;;;3.60;;
22614;SDS011;11474;50.790;0.298;2023-08-31T05:49:42;8.38;;;3.70;;
22614;SDS011;11474;50.790;0.298;2023-08-31T05:52:08;9.60;;;3.67;;
22614;SDS011;11474;50.790;0.298;2023-08-31T05:54:34;8.35;;;3.60;;
22614;SDS011;11474;50.790;0.298;2023-08-31T05:57:02;9.20;;;4.15;;
22614;SDS011;11474;50.790;0.298;2023-08-31T05:59:28;8.85;;;3.97;;
22614;SDS011;11474;50.790;0.298;2023-08-31T06:01:55;11.13;;;4.00;;
22614;SDS011;11474;50.790;0.298;2023-08-31T06:04:21;7.82;;;3.80;;
22614;SDS011;11474;50.790;0.298;2023-08-31T06:06:47;8.23;;;3.88;;
22614;SDS011;11474;50.790;0.298;2023-08-31T06:09:13;10.95;;;4.38;;
22614;SDS011;11474;50.790;0.298;2023-08-31T06:11:39;13.07;;;4.25;;
22614;SDS011;11474;50.790;0.298;2023-08-31T06:14:05;11.23;;;4.25;;
22614;SDS011;11474;50.790;0.298;2023-08-31T06:16:31;9.30;;;3.83;;
22614;SDS011;11474;50.790;0.298;2023-08-31T06:18:57;9.90;;;4.10;;
22614;SDS011;11474;50.790;0.298;2023-08-31T06:21:23;9.18;;;3.88;;
22614;SDS011;11474;50.790;0.298;2023-08-31T06:23:50;9.57;;;4.20;;
22614;SDS011;11474;50.790;0.298;2023-08-31T06:26:16;12.75;;;4.70;;
22614;SDS011;11474;50.790;0.298;2023-08-31T06:28:42;10.98;;;4.47;;
22614;SDS011;11474;50.790;0.298;2023-08-31T06:31:08;9.83;;;3.63;;
22614;SDS011;11474;50.790;0.298;2023-08-31T06:33:34;7.97;;;4.00;;
22614;SDS011;11474;50.790;0.298;2023-08-31T06:36:00;13.20;;;4.15;;
22614;SDS011;11474;50.790;0.298;2023-08-31T06:38:26;15.80;;;4.90;;
22614;SDS011;11474;50.790;0.298;2023-08-31T06:40:52;12.27;;;4.00;;
22614;SDS011;11474;50.790;0.298;2023-08-31T06:43:23;9.75;;;4.15;;
22614;SDS011;11474;50.790;0.298;2023-08-31T06:45:51;10.25;;;4.40;;
22614;SDS011;11474;50.790;0.298;2023-08-31T06:48:17;11.65;;;4.00;;
22614;SDS011;11474;50.790;0.298;2023-08-31T06:50:43;9.32;;;3.83;;
22614;SDS011;11474;50.790;0.298;2023-08-31T06:53:09;12.93;;;4.05;;
22614;SDS011;11474;50.790;0.298;2023-08-31T06:55:35;11.65;;;4.18;;
22614;SDS011;11474;50.790;0.298;2023-08-31T06:58:02;9.50;;;4.30;;
22614;SDS011;11474;50.790;0.298;2023-08-31T07:00:29;9.88;;;4.47;;
22614;SDS011;11474;50.790;0.298;2023-08-31T07:02:57;11.45;;;4.30;;
22614;SDS011;11474;50.790;0.298;2023-08-31T07:05:24;11.02;;;4.45;;
22614;SDS011;11474;50.790;0.298;2023-08-31T07:07:52;10.93;;;4.07;;
22614;SDS011;11474;50.790;0.298;2023-08-31T07:10:19;8.65;;;4.03;;
22614;SDS011;11474;50.790;0.298;2023-08-31T07:12:45;16.17;;;4.50;;
22614;SDS011;11474;50.790;0.298;2023-08-31T07:15:11;9.63;;;4.10;;
22614;SDS011;11474;50.790;0.298;2023-08-31T07:17:37;11.90;;;4.78;;
22614;SDS011;11474;50.790;0.298;2023-08-31T07:20:04;13.30;;;5.10;;
22614;SDS011;11474;50.790;0.298;2023-08-31T07:22:34;13.07;;;3.95;;
22614;SDS011;11474;50.790;0.298;2023-08-31T07:25:00;11.60;;;4.45;;
22614;SDS011;11474;50.790;0.298;2023-08-31T07:27:28;9.57;;;3.78;;
22614;SDS011;11474;50.790;0.298;2023-08-31T07:29:54;12.00;;;4.30;;
22614;SDS011;11474;50.790;0.298;2023-08-31T07:32:21;8.27;;;3.90;;
22614;SDS011;11474;50.790;0.298;2023-08-31T07:34:47;13.13;;;4.20;;
22614;SDS011;11474;50.790;0.298;2023-08-31T07:37:13;11.90;;;3.95;;
22614;SDS011;11474;50.790;0.298;2023-08-31T07:39:39;10.93;;;4.10;;
22614;SDS011;11474;50.790;0.298;2023-08-31T07:42:05;11.88;;;3.90;;
22614;SDS011;11474;50.790;0.298;2023-08-31T07:44:32;10.23;;;3.80;;
22614;SDS011;11474;50.790;0.298;2023-08-31T07:46:58;12.90;;;4.20;;
22614;SDS011;11474;50.790;0.298;2023-08-31T07:49:24;10.70;;;4.00;;
22614;SDS011;11474;50.790;0.298;2023-08-31T07:51:50;8.48;;;3.83;;
22614;SDS011;11474;50.790;0.298;2023-08-31T07:54:20;11.07;;;3.90;;
22614;SDS011;11474;50.790;0.298;2023-08-31T07:56:46;9.77;;;3.78;;
22614;SDS011;11474;50.790;0.298;2023-08-31T07:59:12;6.47;;;3.45;;
22614;SDS011;11474;50.790;0.298;2023-08-31T08:01:38;11.27;;;3.87;;
22614;SDS011;11474;50.790;0.298;2023-08-31T08:04:06;7.90;;;3.55;;
22614;SDS011;11474;50.790;0.298;2023-08-31T08:06:32;14.00;;;4.28;;
22614;SDS011;11474;50.790;0.298;2023-08-31T08:08:58;13.05;;;4.10;;
22614;SDS011;11474;50.790;0.298;2023-08-31T08:11:24;13.35;;;4.38;;
22614;SDS011;11474;50.790;0.298;2023-08-31T08:13:50;10.33;;;3.87;;
22614;SDS011;11474;50.790;0.298;2023-08-31T08:16:16;9.85;;;3.70;;
22614;SDS011;11474;50.790;0.298;2023-08-31T08:18:42;8.73;;;3.95;;
22614;SDS011;11474;50.790;0.298;2023-08-31T08:21:08;9.43;;;3.50;;
22614;SDS011;11474;50.790;0.298;2023-08-31T08:23:35;11.40;;;3.90;;
22614;SDS011;11474;50.790;0.298;2023-08-31T08:26:01;10.83;;;3.37;;
22614;SDS011;11474;50.790;0.298;2023-08-31T08:28:27;10.25;;;3.42;;
22614;SDS011;11474;50.790;0.298;2023-08-31T08:30:53;7.95;;;3.60;;
22614;SDS011;11474;50.790;0.298;2023-08-31T08:33:20;10.85;;;3.75;;
22614;SDS011;11474;50.790;0.298;2023-08-31T08:35:46;13.32;;;4.03;;
22614;SDS011;11474;50.790;0.298;2023-08-31T08:38:12;9.65;;;3.67;;
22614;SDS011;11474;50.790;0.298;2023-08-31T08:40:38;10.43;;;3.58;;
22614;SDS011;11474;50.790;0.298;2023-08-31T08:43:07;8.02;;;3.13;;
22614;SDS011;11474;50.790;0.298;2023-08-31T08:45:36;9.35;;;3.30;;
22614;SDS011;11474;50.790;0.298;2023-08-31T08:48:05;9.43;;;3.45;;
22614;SDS011;11474;50.790;0.298;2023-08-31T08:50:32;11.33;;;2.93;;
22614;SDS011;11474;50.790;0.298;2023-08-31T08:52:59;6.00;;;2.03;;
22614;SDS011;11474;50.790;0.298;2023-08-31T08:55:27;6.72;;;2.25;;
22614;SDS011;11474;50.790;0.298;2023-08-31T08:57:53;10.63;;;2.63;;
22614;SDS011;11474;50.790;0.298;2023-08-31T09:00:19;6.78;;;2.35;;
22614;SDS011;11474;50.790;0.298;2023-08-31T09:02:45;10.13;;;2.30;;
22614;SDS011;11474;50.790;0.298;2023-08-31T09:05:12;6.67;;;2.20;;
22614;SDS011;11474;50.790;0.298;2023-08-31T09:07:38;6.45;;;1.80;;
22614;SDS011;11474;50.790;0.298;2023-08-31T09:10:04;11.25;;;2.33;;
22614;SDS011;11474;50.790;0.298;2023-08-31T09:12:30;5.97;;;2.10;;
22614;SDS011;11474;50.790;0.298;2023-08-31T09:14:57;6.30;;;1.98;;
22614;SDS011;11474;50.790;0.298;2023-08-31T09:17:24;6.90;;;2.33;;
22614;SDS011;11474;50.790;0.298;2023-08-31T09:20:00;9.88;;;3.03;;
22614;SDS011;11474;50.790;0.298;2023-08-31T09:22:28;9.00;;;2.58;;
22614;SDS011;11474;50.790;0.298;2023-08-31T09:24:54;10.10;;;2.70;;
22614;SDS011;11474;50.790;0.298;2023-08-31T09:27:21;12.60;;;3.20;;
22614;SDS011;11474;50.790;0.298;2023-08-31T09:29:50;14.65;;;2.85;;
22614;SDS011;11474;50.790;0.298;2023-08-31T09:32:17;10.90;;;2.70;;
22614;SDS011;11474;50.790;0.298;2023-08-31T09:34:43;10.10;;;2.55;;
22614;SDS011;11474;50.790;0.298;2023-08-31T09:37:09;12.40;;;3.17;;
22614;SDS011;11474;50.790;0.298;2023-08-31T09:39:36;11.63;;;3.20;;
22614;SDS011;11474;50.790;0.298;2023-08-31T09:42:02;16.33;;;3.70;;
22614;SDS011;11474;50.790;0.298;2023-08-31T09:44:29;8.48;;;3.10;;
22614;SDS011;11474;50.790;0.298;2023-08-31T09:46:55;13.57;;;3.38;;
22614;SDS011;11474;50.790;0.298;2023-08-31T09:49:22;20.83;;;3.47;;
22614;SDS011;11474;50.790;0.298;2023-08-31T09:51:49;13.07;;;3.00;;
22614;SDS011;11474;50.790;0.298;2023-08-31T09:54:16;10.77;;;2.80;;
22614;SDS011;11474;50.790;0.298;2023-08-31T09:56:43;11.20;;;2.63;;
22614;SDS011;11474;50.790;0.298;2023-08-31T09:59:10;14.60;;;3.10;;
22614;SDS011;11474;50.790;0.298;2023-08-31T10:01:37;12.02;;;3.00;;
22614;SDS011;11474;50.790;0.298;2023-08-31T10:04:03;12.63;;;2.90;;
22614;SDS011;11474;50.790;0.298;2023-08-31T10:06:31;15.38;;;3.17;;
22614;SDS011;11474;50.790;0.298;2023-08-31T10:08:59;12.30;;;2.90;;
22614;SDS011;11474;50.790;0.298;2023-08-31T10:11:26;14.80;;;4.20;;
22614;SDS011;11474;50.790;0.298;2023-08-31T10:13:52;15.73;;;3.35;;
22614;SDS011;11474;50.790;0.298;2023-08-31T10:16:19;13.43;;;3.45;;
22614;SDS011;11474;50.790;0.298;2023-08-31T10:18:45;13.52;;;3.00;;
22614;SDS011;11474;50.790;0.298;2023-08-31T10:21:11;12.45;;;3.13;;
22614;SDS011;11474;50.790;0.298;2023-08-31T10:23:44;12.90;;;3.00;;
22614;SDS011;11474;50.790;0.298;2023-08-31T10:26:10;11.25;;;3.25;;
22614;SDS011;11474;50.790;0.298;2023-08-31T10:28:40;13.85;;;3.10;;
22614;SDS011;11474;50.790;0.298;2023-08-31T10:33:34;13.23;;;3.13;;
22614;SDS011;11474;50.790;0.298;2023-08-31T10:36:01;16.08;;;3.55;;
22614;SDS011;11474;50.790;0.298;2023-08-31T10:38:28;16.25;;;3.47;;
22614;SDS011;11474;50.790;0.298;2023-08-31T10:49:12;14.57;;;3.75;;
22614;SDS011;11474;50.790;0.298;2023-08-31T10:51:40;18.95;;;3.72;;
22614;SDS011;11474;50.790;0.298;2023-08-31T10:54:07;12.32;;;3.08;;
22614;SDS011;11474;50.790;0.298;2023-08-31T10:59:19;20.85;;;3.70;;
22614;SDS011;11474;50.790;0.298;2023-08-31T11:01:52;21.73;;;4.60;;
22614;SDS011;11474;50.790;0.298;2023-08-31T11:04:22;16.95;;;3.88;;
22614;SDS011;11474;50.790;0.298;2023-08-31T11:06:49;15.43;;;3.50;;
22614;SDS011;11474;50.790;0.298;2023-08-31T11:09:19;21.83;;;3.97;;
22614;SDS011;11474;50.790;0.298;2023-08-31T11:11:45;15.15;;;3.55;;
22614;SDS011;11474;50.790;0.298;2023-08-31T11:14:12;15.18;;;3.35;;
22614;SDS011;11474;50.790;0.298;2023-08-31T11:16:38;15.98;;;3.80;;
22614;SDS011;11474;50.790;0.298;2023-08-31T11:19:05;19.02;;;3.80;;
22614;SDS011;11474;50.790;0.298;2023-08-31T11:21:31;15.70;;;3.67;;
22614;SDS011;11474;50.790;0.298;2023-08-31T11:23:57;22.17;;;5.57;;
22614;SDS011;11474;50.790;0.298;2023-08-31T11:26:25;21.45;;;7.28;;
22614;SDS011;11474;50.790;0.298;2023-08-31T11:28:51;23.35;;;8.55;;
22614;SDS011;11474;50.790;0.298;2023-08-31T11:31:24;19.27;;;5.85;;
22614;SDS011;11474;50.790;0.298;2023-08-31T11:33:50;19.52;;;6.63;;
22614;SDS011;11474;50.790;0.298;2023-08-31T11:36:17;26.93;;;9.30;;
22614;SDS011;11474;50.790;0.298;2023-08-31T11:38:44;20.00;;;8.80;;
22614;SDS011;11474;50.790;0.298;2023-08-31T11:41:11;17.50;;;6.25;;
22614;SDS011;11474;50.790;0.298;2023-08-31T11:43:37;11.95;;;3.50;;
22614;SDS011;11474;50.790;0.298;2023-08-31T11:46:04;11.43;;;3.33;;
22614;SDS011;11474;50.790;0.298;2023-08-31T11:48:31;13.63;;;3.90;;
22614;SDS011;11474;50.790;0.298;2023-08-31T11:50:57;12.02;;;3.95;;
22614;SDS011;11474;50.790;0.298;2023-08-31T11:53:24;18.55;;;4.35;;
22614;SDS011;11474;50.790;0.298;2023-08-31T11:55:51;18.75;;;3.97;;
22614;SDS011;11474;50.790;0.298;2023-08-31T11:58:18;13.98;;;4.05;;
22614;SDS011;11474;50.790;0.298;2023-08-31T12:00:45;11.45;;;3.60;;
22614;SDS011;11474;50.790;0.298;2023-08-31T12:03:12;11.98;;;3.20;;
22614;SDS011;11474;50.790;0.298;2023-08-31T12:05:44;13.60;;;3.20;;
22614;SDS011;11474;50.790;0.298;2023-08-31T12:08:11;13.07;;;3.17;;
22614;SDS011;11474;50.790;0.298;2023-08-31T12:10:40;12.30;;;3.28;;
22614;SDS011;11474;50.790;0.298;2023-08-31T12:13:09;14.48;;;3.30;;
22614;SDS011;11474;50.790;0.298;2023-08-31T12:15:36;12.32;;;2.97;;
22614;SDS011;11474;50.790;0.298;2023-08-31T12:20:34;11.90;;;2.55;;
22614;SDS011;11474;50.790;0.298;2023-08-31T12:23:07;10.68;;;3.00;;
22614;SDS011;11474;50.790;0.298;2023-08-31T12:25:34;12.50;;;3.60;;
22614;SDS011;11474;50.790;0.298;2023-08-31T12:28:01;16.08;;;3.33;;
22614;SDS011;11474;50.790;0.298;2023-08-31T12:30:28;13.20;;;3.17;;
22614;SDS011;11474;50.790;0.298;2023-08-31T12:32:54;12.95;;;2.75;;
22614;SDS011;11474;50.790;0.298;2023-08-31T12:35:21;9.30;;;2.70;;
22614;SDS011;11474;50.790;0.298;2023-08-31T12:37:47;8.90;;;2.60;;
22614;SDS011;11474;50.790;0.298;2023-08-31T12:40:13;9.45;;;2.80;;
22614;SDS011;11474;50.790;0.298;2023-08-31T12:42:40;12.40;;;3.20;;
22614;SDS011;11474;50.790;0.298;2023-08-31T12:45:07;11.50;;;3.15;;
22614;SDS011;11474;50.790;0.298;2023-08-31T12:47:34;10.90;;;3.13;;
22614;SDS011;11474;50.790;0.298;2023-08-31T12:50:00;11.43;;;2.38;;
22614;SDS011;11474;50.790;0.298;2023-08-31T12:52:28;4.13;;;1.97;;
22614;SDS011;11474;50.790;0.298;2023-08-31T12:54:54;7.55;;;2.25;;
22614;SDS011;11474;50.790;0.298;2023-08-31T12:57:20;9.38;;;2.60;;
22614;SDS011;11474;50.790;0.298;2023-08-31T12:59:46;7.45;;;2.58;;
22614;SDS011;11474;50.790;0.298;2023-08-31T13:02:12;11.10;;;3.22;;
22614;SDS011;11474;50.790;0.298;2023-08-31T13:04:38;7.90;;;2.30;;
22614;SDS011;11474;50.790;0.298;2023-08-31T13:07:05;8.05;;;2.40;;
22614;SDS011;11474;50.790;0.298;2023-08-31T13:09:31;9.43;;;2.75;;
22614;SDS011;11474;50.790;0.298;2023-08-31T13:11:57;9.88;;;2.70;;
22614;SDS011;11474;50.790;0.298;2023-08-31T13:14:23;10.70;;;2.67;;
22614;SDS011;11474;50.790;0.298;2023-08-31T13:16:49;11.25;;;2.47;;
22614;SDS011;11474;50.790;0.298;2023-08-31T13:19:16;7.35;;;2.20;;
22614;SDS011;11474;50.790;0.298;2023-08-31T13:21:42;8.90;;;2.60;;
22614;SDS011;11474;50.790;0.298;2023-08-31T13:24:08;7.40;;;2.15;;
22614;SDS011;11474;50.790;0.298;2023-08-31T13:26:35;7.80;;;2.10;;
22614;SDS011;11474;50.790;0.298;2023-08-31T13:29:01;8.73;;;2.30;;
22614;SDS011;11474;50.790;0.298;2023-08-31T13:31:27;10.55;;;2.50;;
22614;SDS011;11474;50.790;0.298;2023-08-31T13:33:53;7.95;;;2.40;;
22614;SDS011;11474;50.790;0.298;2023-08-31T13:36:20;8.38;;;2.50;;
22614;SDS011;11474;50.790;0.298;2023-08-31T13:38:46;12.43;;;2.50;;
22614;SDS011;11474;50.790;0.298;2023-08-31T13:41:12;10.18;;;2.45;;
22614;SDS011;11474;50.790;0.298;2023-08-31T13:43:38;7.53;;;2.30;;
22614;SDS011;11474;50.790;0.298;2023-08-31T13:46:04;12.40;;;2.40;;
22614;SDS011;11474;50.790;0.298;2023-08-31T13:48:30;8.00;;;2.42;;
22614;SDS011;11474;50.790;0.298;2023-08-31T13:50:56;9.68;;;2.47;;
22614;SDS011;11474;50.790;0.298;2023-08-31T13:53:23;5.82;;;2.20;;
22614;SDS011;11474;50.790;0.298;2023-08-31T13:55:49;8.98;;;2.55;;
22614;SDS011;11474;50.790;0.298;2023-08-31T13:58:15;6.23;;;2.30;;
22614;SDS011;11474;50.790;0.298;2023-08-31T14:00:42;9.00;;;2.30;;
22614;SDS011;11474;50.790;0.298;2023-08-31T14:03:08;7.25;;;2.20;;
22614;SDS011;11474;50.790;0.298;2023-08-31T14:05:34;7.70;;;2.63;;
22614;SDS011;11474;50.790;0.298;2023-08-31T14:08:00;7.45;;;2.78;;
22614;SDS011;11474;50.790;0.298;2023-08-31T14:10:29;8.05;;;2.35;;
22614;SDS011;11474;50.790;0.298;2023-08-31T14:12:56;10.93;;;2.80;;
22614;SDS011;11474;50.790;0.298;2023-08-31T14:15:22;9.25;;;2.50;;
22614;SDS011;11474;50.790;0.298;2023-08-31T14:17:52;8.88;;;2.30;;
22614;SDS011;11474;50.790;0.298;2023-08-31T14:20:18;10.48;;;2.80;;
22614;SDS011;11474;50.790;0.298;2023-08-31T14:22:44;10.38;;;2.75;;
22614;SDS011;11474;50.790;0.298;2023-08-31T14:25:11;8.45;;;2.65;;
22614;SDS011;11474;50.790;0.298;2023-08-31T14:27:37;11.35;;;2.80;;
22614;SDS011;11474;50.790;0.298;2023-08-31T14:30:04;9.73;;;2.60;;
22614;SDS011;11474;50.790;0.298;2023-08-31T14:32:31;8.73;;;2.50;;
22614;SDS011;11474;50.790;0.298;2023-08-31T14:34:57;8.95;;;2.70;;
22614;SDS011;11474;50.790;0.298;2023-08-31T14:37:23;7.05;;;2.22;;
22614;SDS011;11474;50.790;0.298;2023-08-31T14:39:50;9.35;;;3.30;;
22614;SDS011;11474;50.790;0.298;2023-08-31T14:42:16;11.20;;;3.17;;
22614;SDS011;11474;50.790;0.298;2023-08-31T14:44:45;9.70;;;2.40;;
22614;SDS011;11474;50.790;0.298;2023-08-31T14:47:11;6.10;;;2.38;;
22614;SDS011;11474;50.790;0.298;2023-08-31T14:49:41;10.13;;;2.80;;
22614;SDS011;11474;50.790;0.298;2023-08-31T14:52:07;5.88;;;1.88;;
22614;SDS011;11474;50.790;0.298;2023-08-31T14:54:33;6.63;;;2.30;;
22614;SDS011;11474;50.790;0.298;2023-08-31T14:56:59;9.93;;;2.15;;
22614;SDS011;11474;50.790;0.298;2023-08-31T14:59:25;7.22;;;1.90;;
22614;SDS011;11474;50.790;0.298;2023-08-31T15:01:52;9.75;;;2.50;;
22614;SDS011;11474;50.790;0.298;2023-08-31T15:04:18;7.27;;;1.93;;